createdAt,value
2023-01-09T00:02:28.607Z,0.53
2023-01-09T00:07:32.199Z,0.40
2023-01-09T00:12:37.384Z,0.40
2023-01-09T00:17:41.468Z,0.40
2023-01-09T00:22:45.057Z,0.40
2023-01-09T00:27:50.056Z,0.30
2023-01-09T00:32:54.520Z,0.40
2023-01-09T00:37:58.046Z,0.40
2023-01-09T00:43:03.292Z,0.30
2023-01-09T00:48:11.073Z,0.30
2023-01-09T00:53:18.239Z,0.30
2023-01-09T00:58:23.130Z,0.20
2023-01-09T01:03:27.199Z,0.20
2023-01-09T01:08:30.710Z,0.10
2023-01-09T01:13:36.051Z,0.10
2023-01-09T01:18:39.875Z,0.20
2023-01-09T01:23:44.098Z,0.20
2023-01-09T01:28:48.976Z,0.13
2023-01-09T01:33:52.565Z,0.20
2023-01-09T01:38:56.035Z,0.20
2023-01-09T01:44:03.298Z,0.10
2023-01-09T01:49:10.922Z,0.03
2023-01-09T01:54:19.585Z,0.10
2023-01-09T01:59:27.248Z,0.10
2023-01-09T02:04:34.009Z,0.10
2023-01-09T02:09:37.784Z,0.10
2023-01-09T02:14:43.045Z,0.10
2023-01-09T02:20:15.566Z,0.17
2023-01-09T02:25:45.979Z,0.10
2023-01-09T02:30:53.146Z,0.23
2023-01-09T02:36:09.486Z,0.10
2023-01-09T02:41:18.407Z,0.10
2023-01-09T02:46:24.109Z,0.10
2023-01-09T02:51:37.357Z,0.13
2023-01-09T02:56:56.083Z,0.10
2023-01-09T03:02:17.928Z,0.10
2023-01-09T03:07:26.255Z,0.10
2023-01-09T03:12:33.486Z,0.20
2023-01-09T03:17:41.943Z,0.20
2023-01-09T03:22:54.104Z,0.13
2023-01-09T03:28:00.511Z,0.30
2023-01-09T03:33:05.415Z,0.10
2023-01-09T03:38:08.944Z,0.20
2023-01-09T03:43:12.757Z,0.30
2023-01-09T03:48:17.873Z,0.17
2023-01-09T03:53:22.636Z,0.20
2023-01-09T03:58:27.568Z,0.20
2023-01-09T04:03:32.632Z,0.10
2023-01-09T04:08:36.285Z,0.20
2023-01-09T04:13:40.140Z,0.20
2023-01-09T04:18:45.080Z,0.10
2023-01-09T04:23:48.645Z,0.20
2023-01-09T04:28:52.213Z,0.20
2023-01-09T04:33:57.301Z,0.20
2023-01-09T04:39:00.918Z,0.10
2023-01-09T04:44:04.980Z,0.20
2023-01-09T04:49:09.958Z,0.17
2023-01-09T04:54:13.721Z,0.30
2023-01-09T04:59:17.815Z,0.20
2023-01-09T05:04:23.039Z,0.20
2023-01-09T05:09:26.854Z,0.27
2023-01-09T05:14:30.460Z,0.20
2023-01-09T05:19:35.442Z,0.17
2023-01-09T05:24:39.084Z,0.30
2023-01-09T05:29:42.654Z,0.20
2023-01-09T05:34:47.558Z,0.30
2023-01-09T05:39:51.050Z,0.20
2023-01-09T05:44:54.602Z,0.40
2023-01-09T05:50:00.397Z,0.40
2023-01-09T05:55:05.109Z,0.20
2023-01-09T06:00:10.046Z,0.33
2023-01-09T06:05:15.088Z,0.30
2023-01-09T06:10:19.204Z,0.40
2023-01-09T06:15:22.792Z,0.23
2023-01-09T06:20:27.686Z,0.40
2023-01-09T06:25:31.275Z,0.40
2023-01-09T06:30:35.006Z,0.20
2023-01-09T06:35:39.931Z,0.60
2023-01-09T06:40:43.555Z,0.27
2023-01-09T06:45:47.157Z,0.20
2023-01-09T06:50:52.144Z,0.40
2023-01-09T06:55:55.885Z,0.40
2023-01-09T07:01:00.038Z,0.30
2023-01-09T07:06:06.006Z,0.50
2023-01-09T07:11:09.545Z,0.50
2023-01-09T07:16:13.150Z,0.30
2023-01-09T07:21:18.147Z,0.33
2023-01-09T07:26:21.724Z,0.43
2023-01-09T07:31:25.264Z,0.50
2023-01-09T07:36:30.187Z,0.40
2023-01-09T07:41:33.772Z,0.50
2023-01-09T07:46:37.395Z,0.40
2023-01-09T07:51:44.564Z,0.37
2023-01-09T07:56:48.152Z,0.40
2023-01-09T08:01:51.896Z,0.50
2023-01-09T08:06:57.517Z,0.50
2023-01-09T08:12:01.044Z,0.63
2023-01-09T08:17:04.614Z,0.50
2023-01-09T08:22:09.621Z,0.57
2023-01-09T08:27:13.188Z,0.50
2023-01-09T08:32:16.784Z,0.40
2023-01-09T08:37:21.705Z,0.40
2023-01-09T08:42:42.555Z,0.40
2023-01-09T08:47:46.254Z,0.30
2023-01-09T08:52:51.187Z,0.40
2023-01-09T08:57:56.249Z,0.63
2023-01-09T09:03:01.556Z,0.60
2023-01-09T09:08:07.093Z,0.40
2023-01-09T09:13:10.656Z,0.40
2023-01-09T09:18:14.189Z,0.30
2023-01-09T09:23:19.136Z,0.20
2023-01-09T09:28:22.720Z,0.40
2023-01-09T09:33:26.212Z,0.23
2023-01-09T09:38:31.120Z,0.27
2023-01-09T09:44:23.993Z,0.30
2023-01-09T09:49:32.809Z,0.40
2023-01-09T09:54:43.643Z,0.23
2023-01-09T09:59:51.266Z,0.40
2023-01-09T10:05:00.247Z,0.30
2023-01-09T10:10:11.736Z,0.30
2023-01-09T10:15:19.246Z,0.20
2023-01-09T10:20:49.293Z,0.20
2023-01-09T10:26:01.640Z,0.30
2023-01-09T10:31:13.870Z,0.27
2023-01-09T10:36:39.623Z,0.27
2023-01-09T10:41:55.064Z,0.30
2023-01-09T10:47:00.403Z,0.10
2023-01-09T10:52:16.630Z,0.10
2023-01-09T10:57:35.066Z,0.20
2023-01-09T11:02:38.717Z,0.10
2023-01-09T11:07:45.936Z,0.23
2023-01-09T11:12:50.842Z,0.20
2023-01-09T11:17:54.367Z,0.30
2023-01-09T11:22:59.648Z,0.17
2023-01-09T11:28:08.651Z,0.20
2023-01-09T11:33:19.950Z,0.30
2023-01-09T11:38:23.668Z,0.20
2023-01-09T11:43:39.758Z,0.30
2023-01-09T11:48:58.641Z,0.20
2023-01-09T11:54:17.436Z,0.10
2023-01-09T11:59:26.492Z,0.20
2023-01-09T12:04:35.024Z,0.27
2023-01-09T12:09:45.563Z,0.20
2023-01-09T12:15:02.885Z,0.20
2023-01-09T12:20:21.965Z,0.20
2023-01-09T12:25:36.383Z,0.10
2023-01-09T12:30:55.475Z,0.90
2023-01-09T12:36:10.702Z,0.60
2023-01-09T12:41:34.545Z,0.30
2023-01-09T12:46:50.254Z,0.30
2023-01-09T12:52:01.295Z,0.20
2023-01-09T12:57:10.286Z,0.10
2023-01-09T13:02:25.161Z,0.20
2023-01-09T13:07:33.508Z,0.20
2023-01-09T13:12:40.129Z,0.30
2023-01-09T13:17:50.125Z,0.20
2023-01-09T13:22:55.097Z,0.30
2023-01-09T13:28:02.993Z,0.20
2023-01-09T13:33:18.043Z,0.33
2023-01-09T13:38:24.576Z,0.30
2023-01-09T13:43:28.157Z,0.30
2023-01-09T13:48:42.479Z,0.37
2023-01-09T13:53:49.511Z,0.27
2023-01-09T13:59:05.982Z,0.20
2023-01-09T14:04:41.901Z,0.40
2023-01-09T14:09:50.694Z,0.30
2023-01-09T14:14:57.363Z,0.30
2023-01-09T14:20:06.015Z,0.50
2023-01-09T14:25:15.137Z,0.70
2023-01-09T14:30:30.584Z,0.37
2023-01-09T14:35:42.809Z,0.50
2023-01-09T14:40:51.442Z,0.20
2023-01-09T14:46:03.685Z,0.40
2023-01-09T14:51:15.947Z,0.50
2023-01-09T14:56:28.624Z,0.50
2023-01-09T15:01:36.513Z,0.30
2023-01-09T15:06:44.521Z,0.30
2023-01-09T15:11:48.389Z,0.30
2023-01-09T15:16:52.001Z,0.23
2023-01-09T15:22:02.659Z,0.40
2023-01-09T15:27:14.573Z,0.40
2023-01-09T15:32:23.334Z,0.40
2023-01-09T15:37:32.201Z,0.70
2023-01-09T15:42:58.355Z,0.50
2023-01-09T15:48:24.159Z,0.50
2023-01-09T15:53:30.340Z,0.50
2023-01-09T15:58:35.837Z,0.73
2023-01-09T16:03:39.663Z,0.70
2023-01-09T16:08:52.192Z,0.50
2023-01-09T16:13:58.164Z,0.70
2023-01-09T16:19:01.981Z,0.77
2023-01-09T16:24:25.757Z,0.70
2023-01-09T16:29:36.392Z,0.50
2023-01-09T16:34:44.106Z,0.60
2023-01-09T16:40:32.013Z,0.40
2023-01-09T16:45:37.458Z,0.40
2023-01-09T16:50:41.268Z,0.97
2023-01-09T16:55:47.534Z,0.70
2023-01-09T17:00:51.219Z,0.70
2023-01-09T17:05:57.598Z,0.47
2023-01-09T17:11:03.923Z,0.43
2023-01-09T17:16:08.415Z,0.40
2023-01-09T17:21:18.277Z,0.60
2023-01-09T17:26:40.910Z,0.60
2023-01-09T17:31:44.513Z,0.50
2023-01-09T17:36:48.136Z,0.30
2023-01-09T17:41:53.524Z,0.53
2023-01-09T17:46:57.396Z,0.40
2023-01-09T17:52:00.998Z,0.47
2023-01-09T17:57:06.208Z,0.40
2023-01-09T18:02:17.883Z,0.50
2023-01-09T18:07:21.587Z,0.40
2023-01-09T18:12:27.046Z,0.40
2023-01-09T18:17:30.583Z,0.37
2023-01-09T18:22:34.453Z,0.47
2023-01-09T18:27:40.425Z,0.30
2023-01-09T18:32:43.973Z,0.30
2023-01-09T18:37:48.138Z,0.40
2023-01-09T18:42:53.043Z,0.30
2023-01-09T18:47:56.805Z,0.37
2023-01-09T18:53:00.751Z,0.50
2023-01-09T18:58:06.279Z,0.40
2023-01-09T19:03:09.850Z,0.50
2023-01-09T19:08:14.024Z,0.37
2023-01-09T19:13:18.992Z,0.40
2023-01-09T19:18:22.577Z,0.50
2023-01-09T19:23:26.182Z,0.40
2023-01-09T19:28:31.108Z,0.93
2023-01-09T19:33:34.654Z,0.40
2023-01-09T19:38:38.341Z,0.43
2023-01-09T19:43:43.321Z,0.50
2023-01-09T19:48:47.637Z,0.40
2023-01-09T19:53:54.417Z,0.70
2023-01-09T19:59:01.347Z,0.53
2023-01-09T20:04:10.114Z,0.50
2023-01-09T20:09:15.367Z,0.60
2023-01-09T20:14:20.905Z,0.50
2023-01-09T20:19:24.592Z,0.60
2023-01-09T20:24:28.156Z,0.77
2023-01-09T20:29:33.058Z,0.57
2023-01-09T20:34:36.599Z,0.50
2023-01-09T20:39:40.103Z,0.73
2023-01-09T20:44:45.011Z,0.57
2023-01-09T20:49:48.609Z,0.60
2023-01-09T20:54:52.162Z,0.60
2023-01-09T20:59:57.305Z,0.77
2023-01-09T21:05:01.320Z,0.80
2023-01-09T21:10:06.038Z,0.60
2023-01-09T21:15:18.699Z,1.10
2023-01-09T21:20:26.955Z,0.97
2023-01-09T21:25:46.112Z,0.80
2023-01-09T21:30:54.290Z,0.70
2023-01-09T21:35:59.736Z,0.77
2023-01-09T21:41:22.414Z,0.50
2023-01-09T21:46:44.963Z,0.77
2023-01-09T21:51:48.646Z,0.60
2023-01-09T21:56:52.615Z,0.60
2023-01-09T22:01:57.782Z,0.53
2023-01-09T22:07:01.317Z,0.70
2023-01-09T22:12:05.173Z,0.50
2023-01-09T22:17:10.179Z,0.50
2023-01-09T22:22:13.711Z,0.50
2023-01-09T22:27:17.368Z,0.30
2023-01-09T22:32:22.536Z,0.40
2023-01-09T22:37:26.063Z,0.40
2023-01-09T22:42:29.684Z,0.40
2023-01-09T22:47:34.830Z,0.30
2023-01-09T22:52:38.349Z,0.37
2023-01-09T22:57:41.899Z,0.80
2023-01-09T23:02:48.396Z,0.70
2023-01-09T23:07:52.291Z,0.60
2023-01-09T23:12:55.932Z,0.60
2023-01-09T23:18:00.995Z,1.00
2023-01-09T23:23:04.625Z,0.77
2023-01-09T23:28:08.200Z,0.77
2023-01-09T23:33:13.732Z,0.90
2023-01-09T23:38:17.568Z,1.00
2023-01-09T23:43:21.151Z,0.97
2023-01-09T23:48:26.040Z,0.70
2023-01-09T23:53:32.725Z,0.70
2023-01-09T23:58:37.315Z,0.63
